Time;durP1;ratioP1;P1;durP2;ratioP2;P2;SDS_P1;SDS_P2;PMS_P1;PMS_P2;Temp;Humidity;BMP_temperature;BMP_pressure;BME280_temperature;BME280_humidity;BME280_pressure;Samples;Min_cycle;Max_cycle;Signal;HPM_P1;HPM_P2
2021/05/31 00:01:55;;;;;;;6.57;4.37;;;14.90;99.90;;;;;;5053319;28;20776;-75
2021/05/31 00:04:21;;;;;;;6.97;3.83;;;14.80;99.90;;;;;;5054209;28;20219;-76
2021/05/31 00:06:53;;;;;;;5.57;4.17;;;14.80;99.90;;;;;;5054343;28;20283;-74
2021/05/31 00:09:20;;;;;;;11.50;4.00;;;14.70;99.90;;;;;;5053629;28;20662;-75
2021/05/31 00:11:46;;;;;;;5.47;3.87;;;14.80;99.90;;;;;;5054334;28;20345;-75
2021/05/31 00:14:14;;;;;;;7.20;3.83;;;14.70;99.90;;;;;;5054854;28;20287;-74
2021/05/31 00:16:42;;;;;;;6.30;4.33;;;14.70;99.90;;;;;;5054522;28;20293;-74
2021/05/31 00:19:09;;;;;;;7.27;3.93;;;14.60;99.90;;;;;;5053484;28;20184;-75
2021/05/31 00:21:36;;;;;;;9.13;4.23;;;14.50;99.90;;;;;;5053811;28;20227;-75
2021/05/31 00:24:03;;;;;;;6.03;4.10;;;14.50;99.90;;;;;;5053941;28;20203;-77
2021/05/31 00:26:29;;;;;;;6.30;4.33;;;14.50;99.90;;;;;;5053760;28;20271;-74
2021/05/31 00:28:56;;;;;;;6.33;4.50;;;14.50;99.90;;;;;;5053373;28;20732;-77
2021/05/31 00:31:23;;;;;;;8.47;4.80;;;14.40;99.90;;;;;;5048104;28;20290;-76
2021/05/31 00:33:49;;;;;;;6.90;4.40;;;14.30;99.90;;;;;;5054147;28;20279;-74
2021/05/31 00:36:17;;;;;;;7.60;4.93;;;14.40;99.90;;;;;;5053843;28;20307;-74
2021/05/31 00:38:44;;;;;;;12.63;5.30;;;14.30;99.90;;;;;;5052478;28;20340;-76
2021/05/31 00:41:10;;;;;;;7.37;4.67;;;14.30;99.90;;;;;;5053706;28;20215;-75
2021/05/31 00:43:37;;;;;;;6.73;4.43;;;14.30;99.90;;;;;;5054036;28;20287;-76
2021/05/31 00:46:04;;;;;;;9.27;4.43;;;14.40;99.90;;;;;;5053769;28;20260;-75
2021/05/31 00:48:32;;;;;;;5.17;4.13;;;14.30;99.90;;;;;;5053259;28;20196;-76
2021/05/31 00:50:59;;;;;;;7.00;4.43;;;14.30;99.90;;;;;;5053118;28;20554;-75
2021/05/31 00:53:26;;;;;;;7.50;4.00;;;14.20;99.90;;;;;;5052823;28;20253;-75
2021/05/31 00:55:52;;;;;;;5.60;4.40;;;14.20;99.90;;;;;;5053752;28;20199;-77
2021/05/31 00:58:19;;;;;;;9.93;4.83;;;14.10;99.90;;;;;;5053140;28;20715;-76
2021/05/31 01:00:45;;;;;;;9.77;4.90;;;14.00;99.90;;;;;;5052735;28;20294;-75
2021/05/31 01:03:12;;;;;;;6.77;4.10;;;13.90;99.90;;;;;;5053347;28;20202;-75
2021/05/31 01:05:40;;;;;;;6.77;4.80;;;14.00;99.90;;;;;;5053455;28;20291;-75
2021/05/31 01:08:11;;;;;;;8.30;4.73;;;13.90;99.90;;;;;;5053003;28;20204;-74
2021/05/31 01:10:47;;;;;;;5.10;4.43;;;13.90;99.90;;;;;;5052977;28;20215;-75
2021/05/31 01:13:18;;;;;;;8.97;4.67;;;14.00;99.90;;;;;;5053817;28;20271;-75
2021/05/31 01:15:48;;;;;;;10.40;4.77;;;14.00;99.90;;;;;;5053057;28;20218;-75
2021/05/31 01:18:18;;;;;;;6.43;4.73;;;13.90;99.90;;;;;;5052942;28;20278;-76
2021/05/31 01:21:23;;;;;;;10.53;4.40;;;13.80;99.90;;;;;;5052984;28;20246;-76
2021/05/31 01:23:57;;;;;;;7.40;4.30;;;13.80;99.90;;;;;;5052959;28;20598;-75
2021/05/31 01:26:26;;;;;;;7.33;4.43;;;13.80;99.90;;;;;;5052781;28;20225;-75
2021/05/31 01:28:57;;;;;;;6.90;4.40;;;13.70;99.90;;;;;;5052882;28;20660;-75
2021/05/31 01:31:33;;;;;;;8.07;4.37;;;13.70;99.90;;;;;;5050618;28;20196;-77
2021/05/31 01:34:00;;;;;;;10.83;4.60;;;13.60;99.90;;;;;;5052795;28;20657;-78
2021/05/31 01:36:28;;;;;;;5.50;4.60;;;13.60;99.90;;;;;;5052593;28;20729;-75
2021/05/31 01:38:56;;;;;;;6.70;5.03;;;13.60;99.90;;;;;;5052109;28;20279;-74
2021/05/31 01:41:24;;;;;;;7.73;4.37;;;13.60;99.90;;;;;;5052701;28;20216;-75
2021/05/31 01:43:51;;;;;;;5.40;4.20;;;13.60;99.90;;;;;;5053147;28;20202;-75
2021/05/31 01:46:20;;;;;;;7.47;4.37;;;13.40;99.90;;;;;;5052477;28;20671;-74
2021/05/31 01:48:49;;;;;;;8.10;4.97;;;13.30;99.90;;;;;;5052770;28;20279;-76
2021/05/31 01:51:16;;;;;;;6.70;4.20;;;13.30;99.90;;;;;;5053281;28;20192;-77
2021/05/31 01:53:44;;;;;;;5.47;4.23;;;13.30;99.90;;;;;;5052724;28;20204;-74
2021/05/31 01:56:13;;;;;;;6.23;4.30;;;13.30;99.90;;;;;;5052090;28;20211;-75
2021/05/31 01:58:40;;;;;;;8.03;4.93;;;13.30;99.90;;;;;;5052359;28;20283;-77
2021/05/31 02:01:08;;;;;;;10.70;4.77;;;13.20;99.90;;;;;;5053044;28;20306;-74
2021/05/31 02:03:36;;;;;;;10.90;4.93;;;13.20;99.90;;;;;;5056365;28;20279;-77
2021/05/31 02:06:03;;;;;;;5.83;4.80;;;13.10;99.90;;;;;;5056315;28;20279;-74
2021/05/31 02:08:29;;;;;;;8.67;5.47;;;13.20;99.90;;;;;;5056287;28;20224;-74
2021/05/31 02:11:00;;;;;;;7.27;4.67;;;13.20;99.90;;;;;;5056562;28;20271;-74
2021/05/31 02:13:29;;;;;;;4.53;4.13;;;13.20;99.90;;;;;;5056526;28;20212;-75
2021/05/31 02:16:01;;;;;;;8.47;5.23;;;13.20;99.90;;;;;;5047471;28;20654;-75
2021/05/31 02:18:35;;;;;;;7.93;4.90;;;13.10;99.90;;;;;;5056359;28;20214;-75
2021/05/31 02:21:07;;;;;;;6.97;4.70;;;13.10;99.90;;;;;;5056002;28;20217;-75
2021/05/31 02:23:34;;;;;;;6.47;4.73;;;13.10;99.90;;;;;;5056702;28;20204;-76
2021/05/31 02:26:01;;;;;;;5.93;4.50;;;13.00;99.90;;;;;;5055408;28;20287;-75
2021/05/31 02:28:27;;;;;;;5.80;4.50;;;13.00;99.90;;;;;;5056316;28;20346;-76
2021/05/31 02:30:54;;;;;;;7.57;4.70;;;13.00;99.90;;;;;;5056308;28;20207;-74
2021/05/31 02:33:23;;;;;;;12.97;5.50;;;12.90;99.90;;;;;;5055255;28;20275;-75
2021/05/31 02:35:50;;;;;;;6.03;4.83;;;12.90;99.90;;;;;;5055850;28;20210;-77
2021/05/31 02:38:18;;;;;;;7.63;4.93;;;12.90;99.90;;;;;;5055913;28;20223;-74
2021/05/31 02:40:45;;;;;;;8.07;5.20;;;12.80;99.90;;;;;;5055523;28;20299;-74
2021/05/31 02:43:11;;;;;;;6.80;5.00;;;12.70;99.90;;;;;;5055878;28;20199;-75
2021/05/31 02:45:39;;;;;;;8.93;5.40;;;12.70;99.90;;;;;;5055794;28;20195;-75
2021/05/31 02:48:06;;;;;;;8.30;5.37;;;12.60;99.90;;;;;;5055732;28;20195;-74
2021/05/31 02:50:33;;;;;;;8.13;5.00;;;12.50;99.90;;;;;;5055787;28;20258;-76
2021/05/31 02:53:01;;;;;;;7.37;5.30;;;12.50;99.90;;;;;;5056072;28;20192;-76
2021/05/31 02:55:30;;;;;;;6.60;5.33;;;12.50;99.90;;;;;;5055930;28;20282;-74
2021/05/31 02:57:59;;;;;;;6.93;5.43;;;12.50;99.90;;;;;;5055870;28;20200;-74
2021/05/31 03:00:27;;;;;;;9.53;5.60;;;12.40;99.90;;;;;;5054955;28;20569;-75
2021/05/31 03:02:54;;;;;;;7.73;5.80;;;12.40;99.90;;;;;;5055499;28;20283;-75
2021/05/31 03:05:22;;;;;;;7.40;5.43;;;12.40;99.90;;;;;;5055301;28;20717;-74
2021/05/31 03:07:49;;;;;;;9.03;6.00;;;12.40;99.90;;;;;;5055371;28;20204;-73
2021/05/31 03:10:17;;;;;;;9.43;5.50;;;12.40;99.90;;;;;;5054872;28;20295;-74
2021/05/31 03:12:45;;;;;;;9.13;5.63;;;12.40;99.90;;;;;;5054914;28;20287;-75
2021/05/31 03:15:15;;;;;;;10.80;6.07;;;12.30;99.90;;;;;;5054985;28;20196;-77
2021/05/31 03:17:42;;;;;;;7.73;6.20;;;12.30;99.90;;;;;;5055246;28;20219;-74
2021/05/31 03:20:10;;;;;;;8.73;6.07;;;12.30;99.90;;;;;;5055294;28;20276;-76
2021/05/31 03:22:36;;;;;;;10.83;5.80;;;12.30;99.90;;;;;;5055220;28;20393;-74
2021/05/31 03:25:04;;;;;;;7.87;6.20;;;12.20;99.90;;;;;;5054956;28;20275;-75
2021/05/31 03:27:31;;;;;;;8.43;5.90;;;12.30;99.90;;;;;;5055288;28;20692;-75
2021/05/31 03:29:58;;;;;;;8.17;5.60;;;12.30;99.90;;;;;;5054856;28;20283;-74
2021/05/31 03:32:25;;;;;;;8.70;6.50;;;12.30;99.90;;;;;;5055498;28;20210;-75
2021/05/31 03:34:51;;;;;;;7.63;5.30;;;12.20;99.90;;;;;;5054863;28;20200;-76
2021/05/31 03:37:18;;;;;;;10.13;5.73;;;12.30;99.90;;;;;;5054409;28;20239;-76
2021/05/31 03:39:45;;;;;;;11.53;5.53;;;12.10;99.90;;;;;;5054708;28;20680;-74
2021/05/31 03:42:12;;;;;;;7.10;5.50;;;12.10;99.90;;;;;;5054652;28;20561;-75
2021/05/31 03:44:38;;;;;;;9.13;6.20;;;12.10;99.90;;;;;;5054884;28;20191;-76
2021/05/31 03:47:06;;;;;;;9.20;5.73;;;12.10;99.90;;;;;;5054084;28;20650;-74
2021/05/31 03:49:32;;;;;;;8.30;5.83;;;12.10;99.90;;;;;;5054923;28;20204;-75
2021/05/31 03:51:58;;;;;;;16.93;6.10;;;12.20;99.90;;;;;;5055002;28;20283;-74
2021/05/31 03:54:25;;;;;;;10.90;5.50;;;12.20;99.90;;;;;;5054632;28;20280;-75
2021/05/31 03:56:51;;;;;;;16.50;6.37;;;12.10;99.90;;;;;;5053581;28;20308;-76
2021/05/31 03:59:19;;;;;;;18.73;6.40;;;12.20;99.90;;;;;;5053993;28;20223;-74
2021/05/31 04:01:46;;;;;;;13.93;7.20;;;12.30;99.90;;;;;;5053977;28;20553;-74
2021/05/31 04:04:14;;;;;;;15.07;6.43;;;12.30;99.90;;;;;;5054393;28;20203;-75
2021/05/31 04:06:57;;;;;;;15.27;6.27;;;12.30;99.90;;;;;;5054255;28;20230;-77
2021/05/31 04:12:10;;;;;;;13.07;6.13;;;12.60;99.90;;;;;;5046985;28;20257;-76
2021/05/31 04:14:36;;;;;;;13.73;6.03;;;12.70;99.90;;;;;;5054489;28;20540;-75
2021/05/31 04:17:02;;;;;;;15.80;6.63;;;12.70;99.90;;;;;;5053417;28;20206;-74
2021/05/31 04:19:30;;;;;;;14.07;6.57;;;12.90;99.90;;;;;;5054315;28;20654;-75
2021/05/31 04:21:57;;;;;;;12.17;6.17;;;13.10;99.90;;;;;;5054238;28;20307;-74
2021/05/31 04:24:23;;;;;;;13.30;6.20;;;13.30;99.90;;;;;;5053777;28;20200;-77
2021/05/31 04:26:50;;;;;;;16.73;6.87;;;13.80;99.90;;;;;;5053326;28;20720;-77
2021/05/31 04:29:17;;;;;;;11.37;6.07;;;14.60;99.90;;;;;;5044983;28;20189;-76
2021/05/31 04:31:43;;;;;;;11.93;6.20;;;15.40;99.90;;;;;;5054003;28;20202;-75
2021/05/31 04:34:12;;;;;;;10.93;6.33;;;16.40;99.90;;;;;;5053686;28;20282;-75
2021/05/31 04:36:40;;;;;;;11.57;6.10;;;17.30;99.90;;;;;;5054001;28;20242;-74
2021/05/31 04:39:08;;;;;;;14.73;6.40;;;18.10;99.90;;;;;;5053114;28;20291;-76
2021/05/31 04:41:35;;;;;;;8.13;6.00;;;18.90;99.90;;;;;;5053264;28;20215;-75
2021/05/31 04:44:02;;;;;;;7.03;5.93;;;19.60;99.90;;;;;;5053560;28;20196;-75
2021/05/31 04:46:28;;;;;;;11.63;6.47;;;20.20;99.90;;;;;;5053440;28;20578;-75
2021/05/31 04:48:54;;;;;;;8.20;6.80;;;20.80;99.90;;;;;;5053049;28;20220;-77
2021/05/31 04:51:21;;;;;;;9.27;7.10;;;21.20;99.90;;;;;;5053087;28;20421;-76
2021/05/31 04:53:48;;;;;;;8.53;6.27;;;21.40;99.90;;;;;;5053029;28;20358;-76
2021/05/31 04:56:16;;;;;;;8.43;6.53;;;22.10;99.90;;;;;;5052473;28;21955;-75
2021/05/31 04:58:42;;;;;;;16.73;6.95;;;22.50;99.90;;;;;;5052516;28;20275;-75
2021/05/31 05:01:08;;;;;;;9.85;6.80;;;22.90;99.90;;;;;;5052554;28;20305;-75
2021/05/31 05:03:35;;;;;;;10.10;7.25;;;23.50;99.90;;;;;;5053015;28;20660;-76
2021/05/31 05:06:02;;;;;;;9.13;6.88;;;23.90;99.90;;;;;;5051427;28;20195;-75
2021/05/31 05:08:28;;;;;;;12.15;7.13;;;22.90;99.90;;;;;;5052725;28;20211;-74
2021/05/31 05:10:56;;;;;;;8.80;7.07;;;22.40;99.90;;;;;;5052499;28;20287;-74
2021/05/31 05:13:22;;;;;;;11.30;7.57;;;21.10;99.90;;;;;;5052134;28;20220;-76
2021/05/31 05:15:49;;;;;;;10.47;8.27;;;20.20;99.90;;;;;;5052306;28;20188;-75
2021/05/31 05:18:16;;;;;;;10.97;7.07;;;19.30;99.90;;;;;;5050374;28;20554;-76
2021/05/31 05:20:42;;;;;;;9.17;7.27;;;18.70;99.90;;;;;;5053132;28;20302;-76
2021/05/31 05:23:09;;;;;;;8.03;7.20;;;18.70;99.90;;;;;;5049687;28;20196;-75
2021/05/31 05:25:35;;;;;;;9.93;7.60;;;19.30;99.90;;;;;;5052548;28;20650;-75
2021/05/31 05:28:03;;;;;;;11.37;7.87;;;20.30;99.90;;;;;;5046689;28;20188;-75
2021/05/31 05:30:32;;;;;;;10.57;7.53;;;21.20;99.90;;;;;;5053122;28;20200;-74
2021/05/31 05:33:00;;;;;;;10.83;7.90;;;22.00;99.90;;;;;;5042720;28;20617;-74
2021/05/31 05:35:31;;;;;;;9.90;7.30;;;22.70;99.90;;;;;;5061298;28;20192;-76
2021/05/31 05:38:13;;;;;;;9.53;7.23;;;23.40;99.90;;;;;;5063120;28;20188;-76
2021/05/31 05:43:57;;;;;;;11.98;6.93;;;23.20;99.90;;;;;;4998769;28;20858;-76
2021/05/31 05:46:30;;;;;;;8.30;7.43;;;22.40;99.90;;;;;;4991464;28;20250;-77
2021/05/31 05:48:57;;;;;;;8.83;7.20;;;22.20;99.90;;;;;;5026278;28;20287;-75
2021/05/31 05:51:23;;;;;;;9.57;7.47;;;22.60;99.90;;;;;;5052476;28;20210;-76
2021/05/31 05:53:50;;;;;;;9.07;6.90;;;23.40;99.90;;;;;;5052441;28;20192;-76
2021/05/31 05:56:18;;;;;;;13.38;7.68;;;23.90;99.90;;;;;;5037329;28;20249;-74
2021/05/31 05:58:46;;;;;;;10.27;6.97;;;24.40;99.90;;;;;;5049811;28;20238;-75
2021/05/31 06:01:14;;;;;;;13.95;6.95;;;24.90;99.90;;;;;;5051421;28;20299;-75
2021/05/31 06:03:41;;;;;;;8.15;6.43;;;25.30;99.90;;;;;;5051203;28;20976;-76
2021/05/31 06:06:08;;;;;;;10.52;6.57;;;25.80;99.90;;;;;;5052102;28;20661;-77
2021/05/31 06:08:36;;;;;;;13.95;6.78;;;26.30;99.90;;;;;;5052405;28;20721;-76
2021/05/31 06:11:03;;;;;;;10.13;7.13;;;26.70;99.90;;;;;;5052300;28;20199;-76
2021/05/31 06:13:30;;;;;;;8.75;6.88;;;26.60;99.90;;;;;;5052029;28;20188;-75
2021/05/31 06:15:59;;;;;;;9.15;6.75;;;26.90;99.90;;;;;;5051470;28;20198;-75
2021/05/31 06:18:26;;;;;;;10.35;6.93;;;27.10;99.90;;;;;;5052142;28;20271;-75
2021/05/31 06:20:53;;;;;;;8.35;6.57;;;27.20;99.90;;;;;;5051119;28;20679;-77
2021/05/31 06:23:19;;;;;;;10.35;6.47;;;27.40;99.90;;;;;;5052775;28;20250;-77
2021/05/31 06:25:46;;;;;;;7.93;6.55;;;28.00;99.90;;;;;;5051737;28;20200;-76
2021/05/31 06:28:12;;;;;;;11.70;6.25;;;28.10;99.90;;;;;;5050548;28;20357;-77
2021/05/31 06:30:39;;;;;;;9.68;6.32;;;27.70;99.90;;;;;;5051907;28;20283;-77
2021/05/31 06:33:07;;;;;;;10.40;6.55;;;27.50;99.90;;;;;;5051326;28;20195;-75
2021/05/31 06:35:33;;;;;;;11.25;6.55;;;27.70;99.90;;;;;;5052815;28;20239;-75
2021/05/31 06:38:00;;;;;;;7.07;5.90;;;27.60;99.90;;;;;;5051490;28;20586;-76
2021/05/31 06:40:27;;;;;;;8.32;6.00;;;27.40;99.90;;;;;;5050634;28;20295;-78
2021/05/31 06:42:54;;;;;;;10.93;6.20;;;28.00;99.90;;;;;;5046214;28;20197;-76
2021/05/31 06:45:24;;;;;;;8.35;6.15;;;28.20;99.90;;;;;;5061717;28;20199;-77
2021/05/31 06:47:51;;;;;;;7.18;6.00;;;28.40;99.90;;;;;;5057127;28;20223;-76
2021/05/31 06:50:19;;;;;;;9.77;6.30;;;27.80;99.90;;;;;;5055596;28;20192;-72
2021/05/31 06:52:46;;;;;;;10.23;6.32;;;28.50;99.90;;;;;;5055065;28;20284;-76
2021/05/31 06:55:14;;;;;;;9.18;5.78;;;29.00;99.90;;;;;;5054804;28;20190;-77
2021/05/31 06:57:41;;;;;;;10.80;6.18;;;29.20;99.90;;;;;;5055533;28;20303;-77
2021/05/31 07:00:10;;;;;;;10.00;5.60;;;29.50;99.90;;;;;;5055593;28;20200;-78
2021/05/31 07:02:36;;;;;;;8.40;5.40;;;29.60;99.90;;;;;;5054515;28;20235;-78
2021/05/31 07:05:03;;;;;;;8.52;5.43;;;30.00;99.90;;;;;;5055923;28;20222;-77
2021/05/31 07:07:31;;;;;;;7.45;5.50;;;30.10;99.90;;;;;;5054144;28;20295;-76
2021/05/31 07:09:58;;;;;;;5.57;5.03;;;29.80;99.90;;;;;;5054741;28;20279;-77
2021/05/31 07:12:24;;;;;;;9.52;5.60;;;29.60;99.90;;;;;;5054816;28;20706;-78
2021/05/31 07:14:51;;;;;;;9.25;5.50;;;29.40;99.90;;;;;;5064631;28;20203;-77
2021/05/31 07:17:18;;;;;;;5.97;5.22;;;29.90;99.90;;;;;;5054864;28;20188;-77
2021/05/31 07:19:46;;;;;;;10.05;5.25;;;29.70;99.90;;;;;;5055377;28;20279;-77
2021/05/31 07:22:14;;;;;;;6.28;4.95;;;30.70;99.90;;;;;;5054860;28;20314;-79
2021/05/31 07:24:42;;;;;;;8.18;5.18;;;31.60;99.90;;;;;;5054084;28;20210;-78
2021/05/31 07:27:09;;;;;;;6.55;5.10;;;31.80;99.90;;;;;;5052232;28;20192;-77
2021/05/31 07:29:36;;;;;;;7.75;5.30;;;31.20;99.90;;;;;;5053909;28;20283;-78
2021/05/31 07:32:03;;;;;;;5.85;5.18;;;30.50;99.90;;;;;;5054772;28;20206;-77
2021/05/31 07:34:29;;;;;;;11.40;5.20;;;30.30;99.90;;;;;;5055132;28;20216;-78
2021/05/31 07:36:56;;;;;;;6.88;4.55;;;30.60;99.90;;;;;;5055697;28;20334;-78
2021/05/31 07:39:22;;;;;;;7.30;4.82;;;30.10;99.90;;;;;;5055208;28;20211;-77
2021/05/31 07:41:50;;;;;;;9.90;5.28;;;30.50;99.90;;;;;;5054345;28;20648;-77
2021/05/31 07:44:16;;;;;;;6.25;4.85;;;30.70;99.90;;;;;;5055439;28;20283;-77
2021/05/31 07:46:43;;;;;;;8.52;5.00;;;30.30;99.90;;;;;;5054744;28;20645;-77
2021/05/31 07:49:09;;;;;;;6.95;4.78;;;30.60;99.90;;;;;;5054437;28;20223;-77
2021/05/31 07:51:41;;;;;;;7.00;4.65;;;30.70;99.90;;;;;;5054291;28;20215;-77
2021/05/31 07:54:07;;;;;;;7.65;4.80;;;31.20;99.90;;;;;;5054650;28;20199;-77
2021/05/31 07:56:36;;;;;;;6.93;4.53;;;30.90;99.90;;;;;;5053876;28;20273;-77
2021/05/31 07:59:04;;;;;;;8.00;5.05;;;30.70;99.90;;;;;;5061954;28;20219;-77
2021/05/31 08:01:32;;;;;;;7.38;5.00;;;30.30;99.90;;;;;;5054322;28;20212;-78
2021/05/31 08:03:59;;;;;;;7.22;4.80;;;31.00;99.90;;;;;;5054358;28;20192;-77
2021/05/31 08:06:26;;;;;;;8.15;4.40;;;30.50;99.90;;;;;;5055282;28;20204;-77
2021/05/31 08:08:52;;;;;;;10.57;4.70;;;30.30;99.90;;;;;;5053924;28;20185;-78
2021/05/31 08:11:19;;;;;;;5.78;4.40;;;30.90;99.90;;;;;;5053502;28;20200;-77
2021/05/31 08:13:45;;;;;;;8.32;5.00;;;30.70;99.90;;;;;;5053074;28;20267;-78
2021/05/31 08:16:16;;;;;;;8.30;5.13;;;31.40;99.90;;;;;;5052862;28;20626;-77
2021/05/31 08:18:43;;;;;;;7.78;4.90;;;31.40;99.90;;;;;;5051475;28;20192;-76
2021/05/31 08:21:11;;;;;;;6.57;4.93;;;30.60;99.90;;;;;;5037715;28;20680;-76
2021/05/31 08:23:38;;;;;;;7.78;4.68;;;31.20;99.90;;;;;;5052861;28;20271;-77
2021/05/31 08:26:05;;;;;;;6.57;4.20;;;31.50;99.90;;;;;;5053302;28;20184;-78
2021/05/31 08:28:31;;;;;;;6.90;4.22;;;31.70;99.90;;;;;;5053441;28;20198;-76
2021/05/31 08:31:00;;;;;;;5.97;4.20;;;32.00;99.90;;;;;;5053662;28;20631;-77
2021/05/31 08:33:27;;;;;;;5.82;3.90;;;31.50;99.90;;;;;;5054375;28;20180;-79
2021/05/31 08:35:54;;;;;;;5.85;3.90;;;32.60;99.90;;;;;;5053636;28;20282;-77
2021/05/31 08:38:21;;;;;;;5.00;4.18;;;32.90;99.90;;;;;;5053079;28;20177;-77
2021/05/31 08:40:47;;;;;;;6.15;4.05;;;33.00;99.90;;;;;;5042861;28;20235;-78
2021/05/31 08:43:14;;;;;;;5.80;3.75;;;32.00;99.90;;;;;;5053852;28;20719;-78
2021/05/31 08:45:42;;;;;;;5.22;3.38;;;32.10;99.90;;;;;;5053905;28;20584;-78
2021/05/31 08:48:10;;;;;;;6.90;3.42;;;32.90;99.90;;;;;;5053155;28;20184;-76
2021/05/31 08:50:39;;;;;;;4.40;3.55;;;33.30;99.90;;;;;;5053406;28;20241;-77
2021/05/31 08:53:07;;;;;;;5.30;3.47;;;31.80;99.90;;;;;;5053056;28;20677;-77
2021/05/31 08:55:34;;;;;;;5.63;3.25;;;31.20;99.90;;;;;;5052190;28;20271;-76
2021/05/31 08:58:02;;;;;;;7.10;3.65;;;31.60;99.90;;;;;;5053755;28;20645;-77
2021/05/31 09:00:30;;;;;;;3.95;3.47;;;32.20;99.90;;;;;;5052350;28;20192;-78
2021/05/31 09:02:59;;;;;;;5.20;2.97;;;32.60;99.90;;;;;;5050835;28;20261;-77
2021/05/31 09:05:32;;;;;;;4.88;2.70;;;31.70;99.90;;;;;;5053297;28;20280;-78
2021/05/31 09:08:04;;;;;;;4.88;2.97;;;31.10;98.50;;;;;;5050662;28;20188;-76
2021/05/31 09:10:39;;;;;;;5.78;2.97;;;30.50;99.30;;;;;;5051999;28;20223;-76
2021/05/31 09:13:05;;;;;;;5.32;2.90;;;30.40;99.60;;;;;;5052700;28;20183;-78
2021/05/31 09:15:32;;;;;;;4.88;3.13;;;31.30;99.50;;;;;;5051352;28;20816;-78
2021/05/31 09:17:59;;;;;;;4.25;3.00;;;31.10;99.90;;;;;;5048431;28;20321;-78
2021/05/31 09:20:26;;;;;;;8.02;2.90;;;31.40;98.50;;;;;;5059278;28;20661;-76
2021/05/31 09:22:55;;;;;;;4.25;3.10;;;30.70;98.80;;;;;;5061211;28;20212;-77
2021/05/31 09:25:30;;;;;;;6.03;3.20;;;30.70;99.30;;;;;;5052183;28;20243;-76
2021/05/31 09:28:01;;;;;;;4.25;3.63;;;30.70;98.70;;;;;;5051680;28;20184;-77
2021/05/31 09:30:36;;;;;;;5.45;3.03;;;30.90;99.30;;;;;;5051258;28;20250;-77
2021/05/31 09:33:03;;;;;;;3.75;3.08;;;31.70;99.60;;;;;;5049074;28;20291;-77
2021/05/31 09:35:30;;;;;;;3.45;2.80;;;31.90;97.70;;;;;;5052235;28;20585;-76
2021/05/31 09:38:01;;;;;;;8.23;3.10;;;32.70;99.60;;;;;;5052216;28;20192;-77
2021/05/31 09:40:29;;;;;;;5.25;3.40;;;34.00;97.50;;;;;;5053010;28;20204;-76
2021/05/31 09:42:58;;;;;;;4.57;2.90;;;34.10;97.70;;;;;;5051057;28;20269;-77
2021/05/31 09:45:24;;;;;;;5.20;3.17;;;33.60;97.10;;;;;;5052459;28;20219;-77
2021/05/31 09:47:51;;;;;;;4.45;2.80;;;32.90;96.40;;;;;;5050707;28;20654;-77
2021/05/31 09:50:23;;;;;;;4.20;2.90;;;33.40;96.80;;;;;;5051565;28;20627;-78
2021/05/31 09:53:07;;;;;;;4.15;3.33;;;33.40;98.70;;;;;;5052356;28;20203;-78
2021/05/31 09:55:37;;;;;;;4.93;3.28;;;32.80;98.20;;;;;;5062078;28;20204;-78
2021/05/31 09:58:08;;;;;;;5.47;3.38;;;33.20;97.00;;;;;;5051958;28;20241;-77
2021/05/31 10:00:34;;;;;;;6.47;3.22;;;32.50;96.40;;;;;;5050478;28;20188;-78
2021/05/31 10:03:17;;;;;;;6.28;3.53;;;32.00;97.00;;;;;;5049595;28;20208;-77
2021/05/31 10:05:49;;;;;;;5.38;3.22;;;31.90;98.10;;;;;;5050129;28;20187;-78
2021/05/31 10:08:40;;;;;;;3.58;3.28;;;32.50;97.60;;;;;;5050698;28;20258;-76
2021/05/31 10:11:05;;;;;;;6.18;3.10;;;32.30;96.80;;;;;;5050546;28;20192;-77
2021/05/31 10:13:32;;;;;;;3.50;3.20;;;32.40;97.80;;;;;;5051922;28;20200;-77
2021/05/31 10:16:01;;;;;;;4.57;3.45;;;32.90;96.30;;;;;;5051722;28;20196;-77
2021/05/31 10:18:30;;;;;;;3.75;3.38;;;32.10;96.20;;;;;;5051234;28;20223;-78
2021/05/31 10:21:02;;;;;;;5.15;3.28;;;31.80;97.70;;;;;;5051422;28;20239;-78
2021/05/31 10:23:28;;;;;;;5.38;3.20;;;31.50;97.40;;;;;;5050968;28;20192;-77
2021/05/31 10:25:58;;;;;;;5.53;3.30;;;32.00;97.10;;;;;;5054877;28;20302;-78
2021/05/31 10:28:30;;;;;;;5.78;3.03;;;31.60;96.00;;;;;;5056215;28;20302;-78
2021/05/31 10:31:01;;;;;;;4.30;3.13;;;31.40;97.50;;;;;;5053362;28;20223;-77
2021/05/31 10:33:28;;;;;;;6.60;3.00;;;31.30;97.40;;;;;;5056246;28;20280;-77
2021/05/31 10:35:59;;;;;;;3.55;3.25;;;30.20;98.50;;;;;;5056348;28;20192;-78
2021/05/31 10:38:28;;;;;;;5.50;3.00;;;30.10;96.70;;;;;;5055124;28;20219;-76
2021/05/31 10:40:55;;;;;;;4.07;2.90;;;29.30;97.60;;;;;;5047617;28;20240;-78
2021/05/31 10:43:23;;;;;;;4.43;3.00;;;28.70;97.60;;;;;;5055856;28;20204;-77
2021/05/31 10:46:02;;;;;;;4.15;3.55;;;28.50;98.10;;;;;;5055331;28;20246;-77
2021/05/31 10:48:31;;;;;;;5.80;3.50;;;28.80;98.40;;;;;;5055622;28;20283;-77
2021/05/31 10:50:59;;;;;;;3.55;3.25;;;28.80;98.40;;;;;;5053571;28;20192;-78
2021/05/31 10:53:30;;;;;;;3.45;2.97;;;28.20;99.60;;;;;;5055882;28;20189;-77
2021/05/31 10:55:59;;;;;;;3.30;2.80;;;28.20;99.20;;;;;;5053449;28;20188;-77
2021/05/31 10:58:34;;;;;;;3.95;3.30;;;28.50;98.40;;;;;;5043463;28;20208;-79
2021/05/31 11:01:05;;;;;;;4.82;3.17;;;28.40;99.00;;;;;;5050124;28;20249;-77
2021/05/31 11:03:44;;;;;;;4.18;3.20;;;28.60;99.90;;;;;;5054993;28;20188;-77
2021/05/31 11:06:12;;;;;;;3.78;3.40;;;28.80;99.50;;;;;;5055550;28;20283;-78
2021/05/31 11:08:48;;;;;;;3.67;3.25;;;27.50;99.80;;;;;;5055625;28;20224;-78
2021/05/31 11:11:25;;;;;;;4.50;3.75;;;27.90;99.60;;;;;;5054472;28;20207;-78
2021/05/31 11:13:53;;;;;;;3.63;3.03;;;28.50;99.20;;;;;;5053278;28;20265;-77
2021/05/31 11:16:21;;;;;;;5.07;3.58;;;28.80;99.60;;;;;;5055036;28;20203;-78
2021/05/31 11:18:49;;;;;;;4.30;2.95;;;28.90;98.70;;;;;;5054671;28;20654;-78
2021/05/31 11:21:27;;;;;;;3.75;3.42;;;29.10;99.20;;;;;;5054970;28;20211;-77
2021/05/31 11:24:03;;;;;;;6.43;3.20;;;29.50;99.60;;;;;;5055199;28;20207;-77
2021/05/31 11:26:33;;;;;;;7.55;3.63;;;29.70;99.00;;;;;;5054346;28;20223;-79
2021/05/31 11:28:59;;;;;;;6.35;3.65;;;30.00;98.50;;;;;;5053312;28;20212;-78
2021/05/31 11:31:28;;;;;;;5.25;3.25;;;29.70;99.30;;;;;;5052524;28;20231;-78
2021/05/31 11:33:55;;;;;;;3.50;3.20;;;29.40;99.00;;;;;;5053264;28;20708;-77
2021/05/31 11:36:35;;;;;;;5.35;3.40;;;29.40;98.10;;;;;;5054261;28;20587;-78
2021/05/31 11:39:06;;;;;;;7.68;3.60;;;29.20;99.20;;;;;;5054383;28;20211;-78
2021/05/31 11:41:36;;;;;;;7.13;3.67;;;29.40;98.40;;;;;;5054539;28;20302;-78
2021/05/31 11:44:02;;;;;;;4.57;3.75;;;29.30;98.30;;;;;;5054813;28;20723;-78
2021/05/31 11:46:30;;;;;;;5.07;3.95;;;28.70;98.30;;;;;;5054792;28;20702;-77
2021/05/31 11:49:06;;;;;;;9.68;3.75;;;27.80;99.50;;;;;;5054644;28;20192;-77
2021/05/31 11:51:32;;;;;;;7.63;3.65;;;27.30;99.90;;;;;;5054836;28;20200;-78
2021/05/31 11:53:59;;;;;;;6.13;3.80;;;26.90;99.90;;;;;;5054510;28;20284;-78
2021/05/31 11:56:31;;;;;;;7.78;4.25;;;26.60;99.90;;;;;;5054898;28;20279;-77
2021/05/31 11:58:58;;;;;;;5.65;4.10;;;25.60;99.90;;;;;;5054984;28;20541;-77
2021/05/31 12:01:24;;;;;;;6.10;3.90;;;25.20;99.90;;;;;;5054518;28;20307;-77
2021/05/31 12:03:52;;;;;;;4.70;3.95;;;25.00;99.90;;;;;;5053716;28;20263;-78
2021/05/31 12:06:19;;;;;;;9.77;4.40;;;25.40;99.90;;;;;;5054550;28;20299;-77
2021/05/31 12:08:47;;;;;;;7.13;4.03;;;26.90;99.90;;;;;;5053871;28;20282;-78
2021/05/31 12:11:19;;;;;;;6.40;3.95;;;27.50;99.90;;;;;;5054847;28;20192;-79
2021/05/31 12:13:45;;;;;;;5.43;3.60;;;27.60;99.90;;;;;;5054135;28;20207;-78
2021/05/31 12:16:13;;;;;;;6.00;4.18;;;27.30;99.90;;;;;;5054292;28;20309;-77
2021/05/31 12:18:39;;;;;;;5.50;3.65;;;27.60;99.90;;;;;;5054102;28;20196;-77
2021/05/31 12:21:07;;;;;;;5.13;3.67;;;28.10;99.90;;;;;;5053675;28;20323;-79
2021/05/31 12:23:35;;;;;;;5.18;3.40;;;28.80;99.50;;;;;;5034771;28;20290;-77
2021/05/31 12:26:05;;;;;;;7.53;3.65;;;29.70;99.20;;;;;;5041854;28;20197;-77
2021/05/31 12:28:34;;;;;;;5.07;3.63;;;30.10;98.80;;;;;;5054087;28;20227;-78
2021/05/31 12:31:01;;;;;;;4.70;3.50;;;29.30;99.90;;;;;;5053715;28;20192;-77
2021/05/31 12:33:27;;;;;;;6.57;3.83;;;29.10;99.20;;;;;;5054042;28;20196;-78
2021/05/31 12:35:54;;;;;;;5.85;3.20;;;28.10;99.60;;;;;;5053615;28;20589;-78
2021/05/31 12:38:23;;;;;;;6.88;3.42;;;28.20;99.60;;;;;;5053528;28;20278;-78
2021/05/31 12:40:50;;;;;;;6.07;3.22;;;28.30;99.90;;;;;;5053388;28;20235;-77
2021/05/31 12:43:17;;;;;;;3.83;3.33;;;28.50;99.60;;;;;;5053821;28;20226;-78
2021/05/31 12:45:46;;;;;;;6.65;3.40;;;28.40;99.80;;;;;;5052838;28;20590;-78
2021/05/31 12:48:17;;;;;;;8.40;3.55;;;29.10;99.90;;;;;;5053373;28;20200;-77
2021/05/31 12:50:44;;;;;;;6.65;3.58;;;29.70;99.00;;;;;;5054176;28;20203;-78
2021/05/31 12:53:12;;;;;;;4.05;3.65;;;29.10;98.90;;;;;;5053005;28;20274;-77
2021/05/31 12:55:41;;;;;;;4.13;3.42;;;28.80;99.10;;;;;;5053616;28;20253;-78
2021/05/31 12:58:13;;;;;;;5.10;3.50;;;28.30;99.90;;;;;;5049921;28;20219;-77